EGYD - Cranwell
Distance from station: E 5mi, 14km
Updated: 10/21/2017 1:50pm
Mostly Cloudy
Mostly Cloudy
 Wind from SW
Wind: SW 25 mph , 41 km/h
Temperature: 54°F , 12°C
Dew Point: 48°F , 9°C
Humidity: 82%
Barometer: 29.44 inHg , 997 hPa
Clouds: Mostly Cloudy
Visibility: 6 miles , 10 km
Cloud details: Few Clouds 2700 ft
Mostly Cloudy 3100 ft
2017/10/21 20:50 EGYD 212050Z AUTO 23022KT 9999 // FEW027/// BKN031/// 12/09 Q0997